Hay River Airport
CYHY : now visible

Airfield :











YOU CAN JOIN US ON...

 
LOGIN :

Register | Disclaimer

   EN    FR    IT 

 









Legend :    VFR   Marginal VFR   IFR   Intensive IFR   Very Intensive IFR
Visi :
Ceiling :
>= 8 km
>= 3000ft
5 to 8 km
1000 to 3000 ft
1500m to 5 km
500 to 1000 ft
800 to 1500m
200 to 500 ft
< 800m
< 200 ft
Symbols :   Thunderstorms  Fog  Heavy snow  Heavy precipitations  Wind > 20 kt






- Airport Elevation : 543 ft
- IATA code : YHY


CYHY - Hay River

CURRENT METAR :
  • 122000Z 07010G17KT 15SM VCSH FEW047 SCT052 BKN078 15/10 A2968 RMK CU1CU2AC4 SLP058 DENSITY ALT 1000FT

EXPIRED METARs :
  • 121900Z 07009KT 15SM SCT044 BKN052 BKN066 13/09 A2968 RMK CU4CU1AC1 SLP058 DENSITY ALT 700FT
  • 121800Z 18007KT 160V240 15SM FEW039 BKN044 BKN056 19/09 A2967 RMK CU2CU3CU1 SLP053 DENSITY ALT 1400FT

TAF AMD TAF CYHY
Valid from the 12 at 20:00 until the 13 at 06:00 UTC


122008Z 1220/1306 07010G20KT P6SM FEW050 SCT070
TEMPO 1220/1306 P6SM -SHRA SCT050 BKN070
BECMG 1300/1302 VRB03KT RMK NXT FCST BY 130000Z
CZEG FIR / North America



MET'MAP, your aeronautical weather chart ! - Copyright ORBIFLY December 2007 - Disclaimer

ORBIFLY MET'MAP TEAM :

Programming & Development : Alexandra Zaïnal
Concept & original design : Baudouin d'Aumeries
Assistance for programming : Marc-Olivier Méhu
Technical & hardware support : Manuel Goepfert

Contact : metmap@orbifly.com




SOURCES & CREDITS :

   NOAA       Earth
Advisory